Аэропорт: Внуково. Москва

ICAO: UUWW

METAR:
2018/09/23 11:00
UUWW 231100Z 23005MPS 9999 SCT013 BKN030CB 11/08 Q1010 R24/290050 NOSIG
METAR:
2018/09/23 09:24
TAF UUWW 230754Z 2309/2409 27009G15MPS 8000 BKN011 TX13/2312Z TN07/2403Z 
      TEMPO 2309/2315 3100 -SHRA SCT007 BKN015CB 
      BECMG 2315/2317 22004MPS SCT015 PROB40 
      TEMPO 2321/2405 0500 FG SCT002 
      BECMG 2406/2408 18008G13MPS